ADDS METAR Data INFO
IDs: Format: Raw Decoded Include TAF

Data at: 0729 UTC 18 Oct 2017

PAGM 180656Z AUTO 35014KT 10SM BKN024 OVC030 01/M03 A2974 RMK AO2 SLP076 T00111028 FZRANO
PAGM 180556Z AUTO 35014KT 10SM SCT026 BKN037 01/M03 A2973 RMK AO2 SLP074 60000 T00111028 10022 20006 53007 FZRANO
PAGM 180544Z AUTO 36014KT 10SM SCT019 OVC037 01/M02 A2973 RMK AO2 FZRANO
PAGM 180456Z AUTO 35017KT 10SM BKN019 BKN026 OVC032 02/M01 A2972 RMK AO2 UPB23E54 SLP070 P0000 T00171006 FZRANO
PAGM 180451Z AUTO 35016KT 10SM UP BKN019 BKN026 OVC032 02/M01 A2972 RMK AO2 UPB23 P0000 FZRANO
PAGM 180411Z AUTO 35014KT 10SM FEW014 BKN030 OVC035 01/M01 A2971 RMK AO2 FZRANO
PAGM 180356Z AUTO 36018KT 10SM FEW014 BKN028 OVC034 01/M01 A2971 RMK AO2 RAE08 SLP067 P0000 T00111006 FZRANO
PAGM 180321Z AUTO 34017KT 10SM FEW008 BKN035 01/M01 A2971 RMK AO2 RAE08 P0000 FZRANO
PAGM 180305Z AUTO 34016KT 8SM -RA FEW008 BKN021 OVC037 01/M01 A2970 RMK AO2 P0000 FZRANO
PAGM 180256Z AUTO 34013KT 5SM -RA BR SCT014 BKN021 OVC039 01/M01 A2971 RMK AO2 UPE08B36E41RAB41 SLP066 P0000 60000 T00061011 51003 FZRANO
PAGM 180252Z AUTO 35011KT 3SM -RA BR SCT014 BKN021 OVC039 01/M01 A2971 RMK AO2 UPE08B36E41RAB41 P0000 FZRANO
PAGM 180243Z AUTO 35014KT 2 1/2SM RA BR SCT020 BKN030 OVC039 01/M01 A2971 RMK AO2 VIS 1V5 UPE08B36E41RAB41 P0000 FZRANO
PAGM 180156Z AUTO 01010KT 5SM UP BR FEW016 BKN023 OVC030 01/M01 A2970 RMK AO2 UPB28 SLP063 P0000 T00111006 FZRANO
PAGM 180135Z AUTO 36015KT 9SM UP BKN021 OVC034 02/M01 A2969 RMK AO2 UPB28 P0000 FZRANO
PAGM 180103Z AUTO 36015KT 10SM FEW013 SCT021 BKN033 02/M02 A2970 RMK AO2 FZRANO
PAGM 180056Z AUTO 01014KT 10SM FEW013 BKN026 OVC033 02/M02 A2970 RMK AO2 UPB38E51 SLP062 P0000 T00221017 FZRANO
PAGM 180052Z AUTO 01011KT 10SM FEW013 BKN026 OVC035 02/M02 A2970 RMK AO2 UPB38E51 P0000 FZRANO
PAGM 172356Z AUTO 36014KT 10SM OVC031 02/M02 A2969 RMK AO2 UPB09E22 SLP062 P0000 60000 T00171022 10028 20011 51007 FZRANO
PAGM 172331Z AUTO 36016KT 10SM OVC029 02/M02 A2969 RMK AO2 UPB09E22 P0000 FZRANO
PAGM 172256Z AUTO 36015KT 10SM OVC034 02/M03 A2969 RMK AO2 SLP060 T00221028 FZRANO
PAGM 172156Z AUTO 02011KT 10SM FEW028 BKN036 02/M05 A2968 RMK AO2 SLP058 T00221050 FZRANO
PAGM 172106Z AUTO 03012KT 10SM FEW020 SCT025 OVC033 02/M04 A2967 RMK AO2 FZRANO
PAGM 172056Z AUTO 02014KT 10SM BKN024 OVC031 02/M04 A2967 RMK AO2 SLP055 T00221039 51012 FZRANO
PAGM 172014Z AUTO 01015KT 10SM BKN024 OVC031 02/M02 A2967 RMK AO2 FZRANO
PAGM 171956Z AUTO 02013KT 10SM FEW021 OVC033 02/M02 A2966 RMK AO2 SLP050 T00171022 FZRANO
PAGM 171911Z AUTO 01019KT 10SM FEW018 OVC028 02/M02 A2964 RMK AO2 FZRANO
PAGM 171856Z AUTO 01019G24KT 10SM OVC030 02/M02 A2964 RMK AO2 SLP043 T00171017 FZRANO
PAGM 171849Z AUTO 02017G22KT 10SM OVC030 02/M02 A2964 RMK AO2 FZRANO
PAGM 171756Z AUTO 03020KT 10SM OVC026 02/M03 A2962 RMK AO2 SLP037 60000 T00171028 10022 20011 51008 FZRANO
PAGM 171716Z AUTO 03018KT 10SM FEW023 BKN028 02/M02 A2962 RMK AO2 FZRANO
PAGM 171656Z AUTO 04018KT 10SM SCT022 SCT050 02/M03 A2961 RMK AO2 SLP034 T00171028 FZRANO
PAGM 171643Z AUTO 03019KT 10SM FEW020 SCT027 BKN050 02/M02 A2961 RMK AO2 FZRANO
PAGM 171556Z AUTO 03020G24KT 10SM SCT016 OVC032 02/M02 A2961 RMK AO2 SLP034 T00171017 FZRANO
PAGM 171547Z AUTO 04019KT 10SM SCT014 OVC030 02/M01 A2961 RMK AO2 FZRANO
PAGM 171456Z AUTO 03020KT 10SM OVC012 02/M01 A2960 RMK AO2 PK WND 03027/1421 UPB33E45 SLP029 P0000 60000 T00171011 53004 FZRANO
PAGM 171356Z AUTO 03022KT 10SM OVC010 02/00 A2959 RMK AO2 PK WND 04027/1339 UPB30E45 CIG 010V013 SLP026 P0000 T00170000 FZRANO
PAGM 171256Z AUTO 04019KT 10SM OVC012 02/00 A2958 RMK AO2 SLP024 T00220000 FZRANO
PAGM 171156Z AUTO 04020KT 10SM BKN010 OVC014 02/00 A2959 RMK AO2 UPB24E35RAB35E49 CIG 009V012 SLP025 P0000 60000 T00170000 10028 20017 51006 FZRANO
PAGM 171056Z AUTO 04017G23KT 10SM BKN010 OVC017 02/01 A2958 RMK AO2 SLP025 T00220006 FZRANO
PAGM 170956Z AUTO 04018KT 10SM BKN008 OVC013 02/01 A2957 RMK AO2 UPE09B29E44RAB09E29 CIG 005V012 SLP021 P0000 T00220011 FZRANO
PAGM 170911Z AUTO 05016KT 9SM -RA OVC008 02/01 A2957 RMK AO2 UPE09RAB09 CIG 007V012 P0000 FZRANO
PAGM 170856Z AUTO 05015KT 10SM UP OVC010 02/01 A2957 RMK AO2 RAB15E27UPB27E31B47 SLP019 P0000 60000 T00220011 400390017 50001 FZRANO
PAGM 170756Z AUTO 05010KT 10SM BKN012 OVC026 02/01 A2957 RMK AO2 SLP021 T00220006 FZRANO
PAGM 170734Z AUTO 04010KT 10SM BKN014 BKN019 OVC026 02/01 A2957 RMK AO2 FZRANO
PAGM 170726Z AUTO 05010KT 10SM BKN016 OVC026 03/01 A2957 RMK AO2
PAGM 170656Z AUTO 05009KT 10SM BKN014 03/01 A2957 RMK AO2 SLP020 T00280006
PAGM 170609Z AUTO 07007KT 10SM SCT016 SCT021 BKN043 03/01 A2957 RMK AO2
PAGM 170556Z AUTO 07007KT 10SM BKN014 BKN028 OVC035 03/01 A2957 RMK AO2 UPB15E33 SLP018 P0000 60000 T00280006 10039 20022 53002
PAGM 170515Z AUTO 07010KT 8SM UP FEW020 OVC034 03/01 A2956 RMK AO2 UPB15 P0000
PAGM 170456Z AUTO 07011KT 10SM FEW014 BKN025 OVC034 03/01 A2956 RMK AO2 RAE30UPB04E14 SLP016 P0000 T00280006
PAGM 170356Z AUTO 06008KT 4SM -RA BR OVC020 02/01 A2956 RMK AO2 RAB37 SLP016 P0000 T00220006 FZRANO
PAGM 170305Z AUTO 07005KT 10SM BKN029 04/00 A2956 RMK AO2
PAGM 170256Z AUTO 08005KT 10SM FEW024 SCT029 BKN035 03/00 A2956 RMK AO2 SLP016 T00330000 58003
PAGM 170244Z AUTO 10005KT 10SM FEW023 BKN029 BKN035 03/01 A2956 RMK AO2
PAGM 170227Z AUTO 11006KT 10SM SCT016 SCT035 03/01 A2956 RMK AO2
PAGM 170156Z AUTO 10005KT 10SM BKN018 BKN030 03/01 A2956 RMK AO2 SLP017 T00330011
PAGM 170117Z AUTO 11005KT 10SM FEW012 BKN026 03/01 A2957 RMK AO2
PAGM 170056Z AUTO 13006KT 10SM SCT012 03/01 A2957 RMK AO2 SLP019 T00330011
PAGM 170051Z AUTO 13006KT 10SM SCT012 03/01 A2957 RMK AO2
PAGM 170009Z AUTO 15004KT 10SM BKN012 03/01 A2957 RMK AO2
PAGM 162356Z AUTO 14006KT 10SM SCT012 03/01 A2957 RMK AO2 SLP020 60000 T00330011 10033 20017 51002
PAGM 162330Z AUTO 17005KT 10SM SCT011 03/01 A2957 RMK AO2
PAGM 162316Z AUTO 16005KT 10SM BKN011 03/01 A2957 RMK AO2
PAGM 162256Z AUTO 17005KT 10SM FEW013 03/01 A2957 RMK AO2 SLP019 T00280006
PAGM 162207Z AUTO 20005KT 10SM SCT013 03/01 A2957 RMK AO2
PAGM 162156Z AUTO 22004KT 10SM BKN013 03/01 A2957 RMK AO2 SLP019 T00280006
PAGM 162136Z AUTO 20007KT 10SM SCT008 BKN015 03/01 A2957 RMK AO2
PAGM 162056Z AUTO 21005KT 10SM OVC006 02/01 A2956 RMK AO2 CIG 004V007 SLP017 60000 T00220011 53004 FZRANO
PAGM 162021Z AUTO 23004KT 6SM BR BKN004 OVC008 02/02 A2956 RMK AO2 FZRANO
PAGM 162005Z AUTO 22003KT 8SM BKN006 OVC010 02/02 A2955 RMK AO2 CIG 003V008 FZRANO
PAGM 161956Z AUTO 22004KT 10SM OVC004 02/02 A2955 RMK AO2 CIG 003V007 SLP014 T00220017 FZRANO
PAGM 161934Z AUTO 00000KT 3SM BR OVC004 02/02 A2955 RMK AO2 FZRANO